createdAt,value
2023-01-19T00:00:50.586Z,96647.28
2023-01-19T00:03:17.979Z,96643.31
2023-01-19T00:05:45.430Z,96627.50
2023-01-19T00:08:15.531Z,96658.13
2023-01-19T00:10:45.042Z,96657.28
2023-01-19T00:13:11.924Z,96647.34
2023-01-19T00:15:38.789Z,96667.50
2023-01-19T00:18:05.636Z,96654.66
2023-01-19T00:20:32.903Z,96654.16
2023-01-19T00:23:00.186Z,96658.09
2023-01-19T00:25:27.296Z,96651.50
2023-01-19T00:27:54.051Z,96654.19
2023-01-19T00:30:20.801Z,96668.25
2023-01-19T00:32:47.566Z,96647.06
2023-01-19T00:35:14.538Z,96654.41
2023-01-19T00:37:41.246Z,96657.13
2023-01-19T00:40:08.777Z,96653.69
2023-01-19T00:42:41.711Z,96665.09
2023-01-19T00:45:10.225Z,96639.31
2023-01-19T00:47:37.086Z,96655.88
2023-01-19T00:50:04.267Z,96672.59
2023-01-19T00:52:31.145Z,96649.59
2023-01-19T00:54:57.907Z,96669.59
2023-01-19T00:57:24.530Z,96653.31
2023-01-19T00:59:51.270Z,96669.59
2023-01-19T01:02:18.113Z,96665.53
2023-01-19T01:04:44.889Z,96678.16
2023-01-19T01:07:11.596Z,96654.50
2023-01-19T01:09:38.309Z,96657.03
2023-01-19T01:12:05.866Z,96673.41
2023-01-19T01:14:33.059Z,96680.63
2023-01-19T01:17:00.704Z,96683.66
2023-01-19T01:19:27.488Z,96668.84
2023-01-19T01:21:55.589Z,96679.22
2023-01-19T01:24:22.646Z,96641.84
2023-01-19T01:26:49.426Z,96683.81
2023-01-19T01:29:16.353Z,96689.25
2023-01-19T01:31:43.065Z,96681.75
2023-01-19T01:34:09.798Z,96673.03
2023-01-19T01:36:36.515Z,96668.66
2023-01-19T01:39:03.484Z,96665.22
2023-01-19T01:41:30.727Z,96679.94
2023-01-19T01:43:58.946Z,96683.72
2023-01-19T01:46:28.001Z,96688.50
2023-01-19T01:48:57.783Z,96683.88
2023-01-19T01:51:36.760Z,96688.88
2023-01-19T01:54:29.642Z,96695.06
2023-01-19T01:57:02.179Z,96690.88
2023-01-19T01:59:39.351Z,96687.59
2023-01-19T02:02:38.249Z,96694.09
2023-01-19T02:05:10.898Z,96671.09
2023-01-19T02:08:07.099Z,96691.63
2023-01-19T02:10:52.269Z,96693.94
2023-01-19T02:13:22.634Z,96698.41
2023-01-19T02:15:52.812Z,96699.22
2023-01-19T02:18:22.316Z,96667.38
2023-01-19T02:21:15.318Z,96698.16
2023-01-19T02:23:53.520Z,96702.06
2023-01-19T02:26:26.812Z,96702.53
2023-01-19T02:28:58.033Z,96699.09
2023-01-19T02:31:26.166Z,96702.75
2023-01-19T02:33:54.171Z,96698.53
2023-01-19T02:36:25.925Z,96660.72
2023-01-19T02:38:56.675Z,96691.75
2023-01-19T02:41:29.214Z,96687.69
2023-01-19T02:43:58.610Z,96687.59
2023-01-19T02:46:26.016Z,96692.78
2023-01-19T02:48:52.778Z,96686.44
2023-01-19T02:51:24.674Z,96684.38
2023-01-19T02:54:29.776Z,96689.53
2023-01-19T02:57:10.818Z,96672.38
2023-01-19T02:59:50.117Z,96681.91
2023-01-19T03:02:42.265Z,96677.56
2023-01-19T03:05:26.903Z,96663.94
2023-01-19T03:08:04.704Z,96677.53
2023-01-19T03:11:05.033Z,96681.13
2023-01-19T03:13:46.803Z,96673.16
2023-01-19T03:16:38.108Z,96674.31
2023-01-19T03:19:22.899Z,96673.94
2023-01-19T03:21:55.164Z,96681.19
2023-01-19T03:24:24.996Z,96676.47
2023-01-19T03:27:00.396Z,96688.78
2023-01-19T03:29:30.912Z,96675.88
2023-01-19T03:32:01.691Z,96678.41
2023-01-19T03:34:29.774Z,96680.09
2023-01-19T03:37:02.712Z,96689.84
2023-01-19T03:39:29.601Z,96681.59
2023-01-19T03:42:03.196Z,96687.63
2023-01-19T03:44:32.391Z,96678.41
2023-01-19T03:47:00.289Z,96690.38
2023-01-19T03:49:28.575Z,96661.19
2023-01-19T03:51:57.022Z,96683.09
2023-01-19T03:54:23.684Z,96693.47
2023-01-19T03:56:52.497Z,96672.16
2023-01-19T03:59:20.002Z,96694.75
2023-01-19T04:01:47.077Z,96662.69
2023-01-19T04:04:15.650Z,96687.19
2023-01-19T04:06:42.957Z,96692.31
2023-01-19T04:09:09.899Z,96680.28
2023-01-19T04:11:36.678Z,96678.41
2023-01-19T04:14:03.854Z,96700.75
2023-01-19T04:16:30.603Z,96679.16
2023-01-19T04:18:57.424Z,96693.53
2023-01-19T04:21:24.111Z,96678.69
2023-01-19T04:23:50.904Z,96697.75
2023-01-19T04:26:17.953Z,96708.09
2023-01-19T04:28:44.793Z,96708.09
2023-01-19T04:31:11.437Z,96707.94
2023-01-19T04:33:38.205Z,96709.66
2023-01-19T04:36:05.250Z,96712.59
2023-01-19T04:38:32.012Z,96711.13
2023-01-19T04:40:58.768Z,96713.09
2023-01-19T04:43:25.499Z,96708.59
2023-01-19T04:45:52.499Z,96713.13
2023-01-19T04:48:20.194Z,96691.00
2023-01-19T04:50:47.360Z,96714.13
2023-01-19T04:53:16.264Z,96712.91
2023-01-19T04:55:42.930Z,96685.72
2023-01-19T04:58:10.010Z,96720.84
2023-01-19T05:00:37.993Z,96726.28
2023-01-19T05:03:05.478Z,96697.78
2023-01-19T05:05:33.144Z,96717.50
2023-01-19T05:08:00.574Z,96739.47
2023-01-19T05:10:27.244Z,96731.28
2023-01-19T05:12:53.995Z,96740.88
2023-01-19T05:15:21.216Z,96737.97
2023-01-19T05:17:48.062Z,96740.91
2023-01-19T05:20:16.427Z,96736.38
2023-01-19T05:22:48.426Z,96751.38
2023-01-19T05:25:15.432Z,96764.00
2023-01-19T05:27:42.057Z,96759.56
2023-01-19T05:30:09.872Z,96769.72
2023-01-19T05:32:36.541Z,96764.81
2023-01-19T05:35:03.494Z,96782.03
2023-01-19T05:37:31.811Z,96769.50
2023-01-19T05:39:58.832Z,96786.34
2023-01-19T05:42:25.513Z,96782.66
2023-01-19T05:44:52.857Z,96781.44
2023-01-19T05:47:19.515Z,96771.09
2023-01-19T05:49:46.572Z,96772.22
2023-01-19T05:52:13.955Z,96774.09
2023-01-19T05:54:40.844Z,96763.03
2023-01-19T05:57:07.877Z,96779.91
2023-01-19T05:59:34.791Z,96755.78
2023-01-19T06:02:01.508Z,96787.44
2023-01-19T06:04:28.374Z,96785.72
2023-01-19T06:06:55.085Z,96756.69
2023-01-19T06:09:21.734Z,96779.44
2023-01-19T06:11:48.660Z,96786.88
2023-01-19T06:14:15.449Z,96784.47
2023-01-19T06:16:42.223Z,96768.22
2023-01-19T06:19:09.729Z,96790.66
2023-01-19T06:21:36.428Z,96808.44
2023-01-19T06:24:03.633Z,96790.97
2023-01-19T06:26:30.256Z,96815.69
2023-01-19T06:28:57.071Z,96805.72
2023-01-19T06:31:23.695Z,96815.38
2023-01-19T06:33:50.368Z,96817.03
2023-01-19T06:36:17.066Z,96823.56
2023-01-19T06:38:44.138Z,96812.03
2023-01-19T06:41:10.744Z,96806.97
2023-01-19T06:43:37.503Z,96810.03
2023-01-19T06:46:04.839Z,96806.25
2023-01-19T06:48:31.680Z,96803.34
2023-01-19T06:50:59.732Z,96817.25
2023-01-19T06:53:28.335Z,96831.03
2023-01-19T06:56:02.124Z,96813.09
2023-01-19T06:58:31.394Z,96834.19
2023-01-19T07:01:03.674Z,96852.16
2023-01-19T07:03:31.034Z,96848.63
2023-01-19T07:05:58.108Z,96841.72
2023-01-19T07:08:24.829Z,96822.28
2023-01-19T07:11:23.614Z,96849.19
2023-01-19T07:13:40.543Z,96816.03
2023-01-19T07:16:13.489Z,96855.97
2023-01-19T07:18:41.096Z,96850.91
2023-01-19T07:21:08.412Z,96867.78
2023-01-19T07:23:35.493Z,96852.53
2023-01-19T07:26:02.151Z,96833.81
2023-01-19T07:28:31.218Z,96854.59
2023-01-19T07:30:58.022Z,96860.72
2023-01-19T07:33:26.214Z,96869.81
2023-01-19T07:35:53.278Z,96878.44
2023-01-19T07:38:20.437Z,96877.59
2023-01-19T07:40:47.304Z,96887.34
2023-01-19T07:43:14.567Z,96879.25
2023-01-19T07:45:41.564Z,96872.28
2023-01-19T07:48:08.391Z,96876.78
2023-01-19T07:50:35.037Z,96886.50
2023-01-19T07:53:07.332Z,96884.72
2023-01-19T07:55:34.260Z,96884.16
2023-01-19T07:58:01.366Z,96862.13
2023-01-19T08:00:28.144Z,96870.25
2023-01-19T08:03:03.546Z,96883.59
2023-01-19T08:05:30.286Z,96900.22
2023-01-19T08:07:58.114Z,96881.94
2023-01-19T08:10:28.921Z,96906.69
2023-01-19T08:12:57.017Z,96918.06
2023-01-19T08:15:24.923Z,96914.41
2023-01-19T08:18:02.765Z,96910.94
2023-01-19T08:20:30.228Z,96927.75
2023-01-19T08:23:01.192Z,96905.88
2023-01-19T08:25:36.776Z,96942.63
2023-01-19T08:28:06.553Z,96946.72
2023-01-19T08:30:33.393Z,96943.56
2023-01-19T08:33:08.221Z,96937.56
2023-01-19T08:35:41.564Z,96954.13
2023-01-19T08:38:10.147Z,96953.09
2023-01-19T08:40:39.275Z,96965.72
2023-01-19T08:43:12.008Z,96964.91
2023-01-19T08:45:41.640Z,96979.44
2023-01-19T08:48:08.495Z,96954.88
2023-01-19T08:50:35.443Z,96978.69
2023-01-19T08:53:06.514Z,96956.59
2023-01-19T08:55:36.060Z,96985.34
2023-01-19T08:58:04.650Z,96975.84
2023-01-19T09:00:33.709Z,96994.84
2023-01-19T09:03:04.766Z,97000.69
2023-01-19T09:05:37.572Z,97006.41
2023-01-19T09:08:11.038Z,96999.19
2023-01-19T09:10:39.208Z,97009.69
2023-01-19T09:13:08.572Z,96981.69
2023-01-19T09:15:37.800Z,97017.94
2023-01-19T09:18:07.171Z,97013.88
2023-01-19T09:20:36.235Z,97018.72
2023-01-19T09:23:03.494Z,97011.25
2023-01-19T09:25:30.857Z,97019.34
2023-01-19T09:27:59.837Z,97003.13
2023-01-19T09:30:27.854Z,97032.63
2023-01-19T09:32:54.625Z,97043.19
2023-01-19T09:35:22.021Z,97042.13
2023-01-19T09:37:48.751Z,97041.72
2023-01-19T09:40:18.772Z,97042.75
2023-01-19T09:42:53.541Z,97051.16
2023-01-19T09:45:31.351Z,97047.44
2023-01-19T09:48:00.157Z,97065.41
2023-01-19T09:50:40.151Z,97056.00
2023-01-19T09:53:17.230Z,97067.22
2023-01-19T09:55:44.160Z,97090.09
2023-01-19T09:58:19.280Z,97071.31
2023-01-19T10:01:02.755Z,97075.50
2023-01-19T10:03:30.242Z,97083.94
2023-01-19T10:06:04.193Z,97056.09
2023-01-19T10:08:36.923Z,97083.78
2023-01-19T10:11:06.496Z,97073.78
2023-01-19T10:13:43.869Z,97075.59
2023-01-19T10:16:19.582Z,97083.53
2023-01-19T10:18:48.544Z,97055.91
2023-01-19T10:21:31.466Z,97074.59
2023-01-19T10:24:26.173Z,97077.03
2023-01-19T10:26:54.892Z,97073.19
2023-01-19T10:29:38.281Z,97077.03
2023-01-19T10:32:09.974Z,97080.50
2023-01-19T10:34:36.950Z,97076.56
2023-01-19T10:37:25.676Z,97078.38
2023-01-19T10:39:55.564Z,97073.09
2023-01-19T10:42:22.354Z,97068.94
2023-01-19T10:44:50.400Z,97065.91
2023-01-19T10:47:20.771Z,97041.66
2023-01-19T10:49:48.946Z,97070.34
2023-01-19T10:52:36.783Z,97061.06
2023-01-19T10:55:07.774Z,97068.09
2023-01-19T10:57:38.828Z,97072.16
2023-01-19T11:00:07.917Z,97074.00
2023-01-19T11:02:34.829Z,97069.72
2023-01-19T11:05:22.882Z,97069.47
2023-01-19T11:07:49.731Z,97051.81
2023-01-19T11:10:16.572Z,97078.41
2023-01-19T11:13:04.360Z,97061.88
2023-01-19T11:15:40.564Z,97064.94
2023-01-19T11:18:07.916Z,97067.16
2023-01-19T11:20:54.080Z,97052.53
2023-01-19T11:23:43.153Z,97055.25
2023-01-19T11:26:16.350Z,97062.31
2023-01-19T11:28:48.564Z,97054.09
2023-01-19T11:31:15.270Z,97064.25
2023-01-19T11:33:50.542Z,97071.66
2023-01-19T11:36:21.477Z,97068.06
2023-01-19T11:38:53.547Z,97066.56
2023-01-19T11:41:23.136Z,97063.47
2023-01-19T11:43:53.694Z,97065.28
2023-01-19T11:46:22.559Z,97058.41
2023-01-19T11:49:04.783Z,97061.66
2023-01-19T11:51:56.492Z,97061.41
2023-01-19T11:54:31.743Z,97061.56
2023-01-19T11:57:00.308Z,97070.94
2023-01-19T11:59:27.123Z,97064.88
2023-01-19T12:02:00.599Z,97065.69
2023-01-19T12:04:40.416Z,97063.31
2023-01-19T12:07:12.431Z,97064.41
2023-01-19T12:09:45.242Z,97063.47
2023-01-19T12:12:16.858Z,97061.75
2023-01-19T12:15:23.540Z,97063.47
2023-01-19T12:17:54.218Z,97032.34
2023-01-19T12:20:23.817Z,97059.47
2023-01-19T12:23:09.484Z,97052.16
2023-01-19T12:26:14.452Z,97063.00
2023-01-19T12:28:45.566Z,97036.66
2023-01-19T12:31:16.677Z,97061.53
2023-01-19T12:33:43.410Z,97057.41
2023-01-19T12:36:38.887Z,97059.97
2023-01-19T12:39:19.232Z,97055.03
2023-01-19T12:41:47.230Z,97053.00
2023-01-19T12:44:16.611Z,97048.72
2023-01-19T12:46:44.415Z,97053.81
2023-01-19T12:49:26.921Z,97052.00
2023-01-19T12:52:11.740Z,97048.66
2023-01-19T12:54:42.597Z,97046.81
2023-01-19T12:57:21.138Z,97041.44
2023-01-19T12:59:56.535Z,97044.47
2023-01-19T13:02:23.369Z,97042.75
2023-01-19T13:05:19.623Z,97033.16
2023-01-19T13:08:01.565Z,97035.69
2023-01-19T13:10:54.468Z,97035.53
2023-01-19T13:13:37.345Z,97037.22
2023-01-19T13:16:19.312Z,97031.06
2023-01-19T13:19:06.752Z,97032.81
2023-01-19T13:21:44.647Z,97030.09
2023-01-19T13:24:24.384Z,97034.28
2023-01-19T13:26:51.523Z,97039.91
2023-01-19T13:29:30.237Z,97032.19
2023-01-19T13:32:05.050Z,97020.09
2023-01-19T13:34:40.412Z,97007.56
2023-01-19T13:37:17.170Z,97030.13
2023-01-19T13:39:45.317Z,97033.03
2023-01-19T13:42:20.920Z,97012.88
2023-01-19T13:44:52.398Z,97036.66
2023-01-19T13:47:25.166Z,97040.09
2023-01-19T13:49:56.905Z,97028.66
2023-01-19T13:52:28.753Z,97027.78
2023-01-19T13:54:59.856Z,97027.06
2023-01-19T13:57:34.171Z,97032.41
2023-01-19T14:00:14.202Z,97031.44
2023-01-19T14:03:02.011Z,97034.19
2023-01-19T14:05:34.357Z,97036.66
2023-01-19T14:08:13.445Z,97034.09
2023-01-19T14:10:41.984Z,97031.25
2023-01-19T14:13:16.597Z,97039.16
2023-01-19T14:15:44.859Z,97036.19
2023-01-19T14:18:31.816Z,97037.91
2023-01-19T14:21:02.804Z,97036.81
2023-01-19T14:23:52.229Z,97043.56
2023-01-19T14:26:37.618Z,97051.28
2023-01-19T14:29:10.329Z,97038.66
2023-01-19T14:32:10.067Z,97024.72
2023-01-19T14:34:41.564Z,97043.78
2023-01-19T14:37:25.321Z,97038.22
2023-01-19T14:39:56.075Z,97040.78
2023-01-19T14:42:33.032Z,97037.34
2023-01-19T14:45:07.010Z,97035.78
2023-01-19T14:47:40.111Z,97042.44
2023-01-19T14:50:19.614Z,97051.22
2023-01-19T14:53:08.035Z,97034.19
2023-01-19T14:55:39.694Z,97052.56
2023-01-19T14:58:15.458Z,97054.66
2023-01-19T15:00:43.317Z,97052.03
2023-01-19T15:03:10.761Z,97056.88
2023-01-19T15:05:43.571Z,97056.22
2023-01-19T15:08:17.675Z,97068.78
2023-01-19T15:10:45.940Z,97046.41
2023-01-19T15:13:20.496Z,97037.94
2023-01-19T15:15:47.749Z,97059.34
2023-01-19T15:18:19.349Z,97069.16
2023-01-19T15:20:46.096Z,97065.72
2023-01-19T15:23:13.014Z,97060.53
2023-01-19T15:25:39.880Z,97073.09
2023-01-19T15:28:18.361Z,97069.91
2023-01-19T15:30:45.541Z,97055.41
2023-01-19T15:33:27.241Z,97071.22
2023-01-19T15:35:54.119Z,97071.31
2023-01-19T15:38:20.809Z,97072.25
2023-01-19T15:40:51.401Z,97063.09
2023-01-19T15:43:18.908Z,97061.53
2023-01-19T15:45:54.656Z,97069.63
2023-01-19T15:48:22.422Z,97074.88
2023-01-19T15:50:49.003Z,97073.28
2023-01-19T15:53:18.566Z,97073.34
2023-01-19T15:55:49.406Z,97086.81
2023-01-19T15:58:16.635Z,97062.94
2023-01-19T16:00:43.534Z,97080.34
2023-01-19T16:03:11.064Z,97090.00
2023-01-19T16:05:43.436Z,97094.28
2023-01-19T16:08:11.877Z,97091.94
2023-01-19T16:10:39.625Z,97069.97
2023-01-19T16:13:06.542Z,97090.53
2023-01-19T16:15:35.184Z,97099.78
2023-01-19T16:18:02.732Z,97096.84
2023-01-19T16:20:29.536Z,97095.72
2023-01-19T16:23:03.196Z,97095.03
2023-01-19T16:25:36.499Z,97101.28
2023-01-19T16:28:03.413Z,97103.81
2023-01-19T16:30:30.168Z,97085.13
2023-01-19T16:32:56.946Z,97112.84
2023-01-19T16:35:23.680Z,97122.19
2023-01-19T16:37:51.353Z,97118.91
2023-01-19T16:40:20.272Z,97102.50
2023-01-19T16:42:47.404Z,97117.84
2023-01-19T16:45:14.107Z,97119.88
2023-01-19T16:47:41.045Z,97124.06
2023-01-19T16:50:11.885Z,97123.31
2023-01-19T16:52:38.979Z,97125.94
2023-01-19T16:55:09.514Z,97129.28
2023-01-19T16:57:39.193Z,97130.84
2023-01-19T17:00:09.302Z,97133.47
2023-01-19T17:02:36.735Z,97114.78
2023-01-19T17:05:04.363Z,97118.47
2023-01-19T17:07:31.221Z,97139.78
2023-01-19T17:09:57.875Z,97140.75
2023-01-19T17:12:24.805Z,97116.03
2023-01-19T17:14:51.406Z,97140.81
2023-01-19T17:17:18.500Z,97133.16
2023-01-19T17:19:45.339Z,97137.03
2023-01-19T17:22:12.993Z,97156.38
2023-01-19T17:24:42.382Z,97140.22
2023-01-19T17:27:09.922Z,97150.13
2023-01-19T17:29:36.740Z,97155.25
2023-01-19T17:32:04.079Z,97140.88
2023-01-19T17:34:30.764Z,97171.03
2023-01-19T17:37:02.945Z,97171.75
2023-01-19T17:39:30.028Z,97177.78
2023-01-19T17:41:56.925Z,97173.81
2023-01-19T17:44:23.882Z,97150.41
2023-01-19T17:46:50.726Z,97141.78
2023-01-19T17:49:17.592Z,97170.25
2023-01-19T17:51:44.353Z,97153.09
2023-01-19T17:54:11.362Z,97179.38
2023-01-19T17:56:39.565Z,97184.53
2023-01-19T17:59:08.095Z,97183.88
2023-01-19T18:01:39.957Z,97186.41
2023-01-19T18:04:21.945Z,97199.28
2023-01-19T18:06:50.165Z,97172.06
2023-01-19T18:09:16.872Z,97209.31
2023-01-19T18:11:43.619Z,97205.19
2023-01-19T18:14:12.021Z,97198.91
2023-01-19T18:16:38.872Z,97200.16
2023-01-19T18:19:05.571Z,97196.31
2023-01-19T18:21:32.636Z,97213.06
2023-01-19T18:24:02.142Z,97218.25
2023-01-19T18:26:30.509Z,97218.41
2023-01-19T18:28:57.913Z,97220.19
2023-01-19T18:31:26.458Z,97214.44
2023-01-19T18:33:53.374Z,97223.28
2023-01-19T18:36:20.438Z,97228.34
2023-01-19T18:38:47.736Z,97232.09
2023-01-19T18:41:17.117Z,97231.16
2023-01-19T18:43:44.079Z,97225.28
2023-01-19T18:46:11.271Z,97223.97
2023-01-19T18:48:39.286Z,97220.88
2023-01-19T18:51:11.131Z,97230.31
2023-01-19T18:53:38.538Z,97230.31
2023-01-19T18:56:06.193Z,97236.22
2023-01-19T18:58:34.000Z,97241.16
2023-01-19T19:01:01.767Z,97243.41
2023-01-19T19:03:29.186Z,97231.66
2023-01-19T19:05:56.146Z,97237.53
2023-01-19T19:08:23.162Z,97219.16
2023-01-19T19:10:49.912Z,97217.03
2023-01-19T19:13:17.761Z,97244.91
2023-01-19T19:15:44.661Z,97236.44
2023-01-19T19:18:13.969Z,97227.78
2023-01-19T19:20:43.169Z,97238.69
2023-01-19T19:23:10.581Z,97228.56
2023-01-19T19:25:38.113Z,97244.50
2023-01-19T19:28:05.019Z,97241.47
2023-01-19T19:30:34.359Z,97249.84
2023-01-19T19:33:01.294Z,97239.00
2023-01-19T19:35:28.173Z,97251.16
2023-01-19T19:37:57.558Z,97221.09
2023-01-19T19:40:26.162Z,97257.47
2023-01-19T19:42:53.313Z,97247.25
2023-01-19T19:45:20.707Z,97253.09
2023-01-19T19:47:47.607Z,97248.16
2023-01-19T19:50:14.791Z,97249.66
2023-01-19T19:52:44.126Z,97264.81
2023-01-19T19:55:13.298Z,97256.25
2023-01-19T19:57:41.828Z,97256.78
2023-01-19T20:00:10.954Z,97259.47
2023-01-19T20:02:39.451Z,97241.50
2023-01-19T20:05:08.296Z,97263.34
2023-01-19T20:07:35.397Z,97259.25
2023-01-19T20:10:02.195Z,97239.38
2023-01-19T20:12:28.984Z,97257.56
2023-01-19T20:14:55.786Z,97266.66
2023-01-19T20:17:23.168Z,97253.56
2023-01-19T20:19:50.036Z,97261.59
2023-01-19T20:22:16.747Z,97266.44
2023-01-19T20:24:43.545Z,97249.66
2023-01-19T20:27:10.409Z,97272.25
2023-01-19T20:29:37.312Z,97252.00
2023-01-19T20:32:04.110Z,97267.56
2023-01-19T20:34:33.727Z,97270.22
2023-01-19T20:37:01.796Z,97273.72
2023-01-19T20:39:30.270Z,97272.84
2023-01-19T20:41:57.340Z,97277.34
2023-01-19T20:44:26.058Z,97287.56
2023-01-19T20:46:53.778Z,97286.94
2023-01-19T20:49:20.685Z,97260.63
2023-01-19T20:51:48.342Z,97287.06
2023-01-19T20:54:17.290Z,97268.81
2023-01-19T20:56:44.360Z,97296.47
2023-01-19T20:59:13.011Z,97291.78
2023-01-19T21:01:41.643Z,97267.78
2023-01-19T21:04:09.458Z,97305.81
2023-01-19T21:06:38.720Z,97298.88
2023-01-19T21:09:05.607Z,97304.66
2023-01-19T21:11:32.502Z,97305.16
2023-01-19T21:13:59.336Z,97308.19
2023-01-19T21:16:28.396Z,97312.50
2023-01-19T21:18:56.048Z,97303.34
2023-01-19T21:21:30.787Z,97300.72
2023-01-19T21:24:01.062Z,97309.84
2023-01-19T21:26:31.643Z,97307.97
2023-01-19T21:29:00.265Z,97305.44
2023-01-19T21:31:28.281Z,97308.78
2023-01-19T21:33:56.571Z,97297.63
2023-01-19T21:36:24.771Z,97306.69
2023-01-19T21:38:52.628Z,97299.84
2023-01-19T21:41:20.240Z,97301.59
2023-01-19T21:43:47.463Z,97276.91
2023-01-19T21:46:21.369Z,97313.19
2023-01-19T21:48:48.539Z,97307.91
2023-01-19T21:51:15.744Z,97319.78
2023-01-19T21:53:43.213Z,97315.03
2023-01-19T21:56:11.257Z,97313.41
2023-01-19T21:58:38.456Z,97309.06
2023-01-19T22:01:10.849Z,97297.69
2023-01-19T22:03:37.821Z,97311.34
2023-01-19T22:06:08.622Z,97309.00
2023-01-19T22:08:35.821Z,97295.91
2023-01-19T22:11:07.942Z,97325.28
2023-01-19T22:13:36.218Z,97326.09
2023-01-19T22:16:04.447Z,97337.31
2023-01-19T22:18:31.338Z,97287.06
2023-01-19T22:21:07.600Z,97338.56
2023-01-19T22:23:34.627Z,97321.75
2023-01-19T22:26:01.633Z,97343.91
2023-01-19T22:28:28.423Z,97338.13
2023-01-19T22:30:55.205Z,97326.97
2023-01-19T22:33:22.025Z,97339.31
2023-01-19T22:35:48.804Z,97332.91
2023-01-19T22:38:15.587Z,97341.31
2023-01-19T22:40:42.329Z,97332.59
2023-01-19T22:43:09.085Z,97340.81
2023-01-19T22:45:40.661Z,97333.41
2023-01-19T22:48:07.381Z,97335.50
2023-01-19T22:50:35.370Z,97331.50
2023-01-19T22:53:02.140Z,97331.16
2023-01-19T22:55:29.862Z,97324.28
2023-01-19T22:57:56.672Z,97329.38
2023-01-19T23:00:23.830Z,97317.03
2023-01-19T23:02:50.540Z,97344.13
2023-01-19T23:05:17.535Z,97340.28
2023-01-19T23:07:44.277Z,97343.06
2023-01-19T23:10:11.484Z,97341.22
2023-01-19T23:12:38.339Z,97334.78
2023-01-19T23:15:05.645Z,97344.50
2023-01-19T23:17:32.486Z,97336.84
2023-01-19T23:19:59.136Z,97336.75
2023-01-19T23:22:25.887Z,97340.13
2023-01-19T23:24:52.550Z,97335.81
2023-01-19T23:27:19.400Z,97334.22
2023-01-19T23:29:46.146Z,97342.81
2023-01-19T23:32:12.899Z,97335.22
2023-01-19T23:34:39.715Z,97342.34
2023-01-19T23:37:06.457Z,97343.97
2023-01-19T23:39:33.198Z,97338.56
2023-01-19T23:41:59.982Z,97332.91
2023-01-19T23:44:26.686Z,97340.06
2023-01-19T23:46:53.390Z,97337.41
2023-01-19T23:49:20.122Z,97315.66
2023-01-19T23:51:46.872Z,97340.88
2023-01-19T23:54:13.537Z,97346.53
2023-01-19T23:56:42.728Z,97350.81
2023-01-19T23:59:15.302Z,97349.88
